Time;durP1;ratioP1;P1;durP2;ratioP2;P2;SDS_P1;SDS_P2;PMS_P1;PMS_P2;Temp;Humidity;BMP_temperature;BMP_pressure;BME280_temperature;BME280_humidity;BME280_pressure;Samples;Min_cycle;Max_cycle;Signal;HPM_P1;HPM_P2
2023/06/28 00:02:25;;;;;;;;;3.00;3.00;;;;;28.38;33.34;101917.38;5093234;27;45418;-76
2023/06/28 00:04:51;;;;;;;;;2.00;1.00;;;;;28.41;33.34;101918.84;5077516;27;45388;-76
2023/06/28 00:07:17;;;;;;;;;1.00;1.00;;;;;28.36;33.43;101911.41;5077674;27;45449;-77
2023/06/28 00:09:42;;;;;;;;;2.00;2.00;;;;;28.37;33.59;101915.72;5077001;27;45491;-77
2023/06/28 00:12:08;;;;;;;;;1.67;1.00;;;;;28.40;33.77;101915.34;5075438;28;45695;-77
2023/06/28 00:14:33;;;;;;;;;4.00;3.33;;;;;28.38;33.18;101912.03;5077576;28;45270;-76
2023/06/28 00:16:59;;;;;;;;;2.33;2.33;;;;;28.36;33.64;101906.06;5076115;27;45722;-77
2023/06/28 00:19:26;;;;;;;;;2.00;2.00;;;;;28.43;33.63;101918.63;5077286;27;46428;-76
2023/06/28 00:21:55;;;;;;;;;1.00;1.00;;;;;28.40;33.51;101909.97;5077253;28;45413;-76
2023/06/28 00:24:21;;;;;;;;;2.00;2.00;;;;;28.38;33.18;101914.72;5077124;28;45364;-76
2023/06/28 00:26:46;;;;;;;;;1.00;1.00;;;;;28.32;33.56;101893.25;5077264;28;45485;-77
2023/06/28 00:29:12;;;;;;;;;1.67;1.67;;;;;28.42;33.41;101909.78;5075541;28;47145;-76
2023/06/28 00:31:37;;;;;;;;;2.00;2.00;;;;;28.42;33.84;101909.78;5110074;27;45378;-76
2023/06/28 00:34:02;;;;;;;;;1.00;1.00;;;;;28.38;33.56;101912.03;5075948;28;45273;-76
2023/06/28 00:36:28;;;;;;;;;2.00;2.00;;;;;28.42;33.75;101906.28;5077330;27;45559;-76
2023/06/28 00:38:53;;;;;;;;;2.00;2.00;;;;;28.37;33.50;101901.50;5075147;28;47457;-77
2023/06/28 00:41:18;;;;;;;;;2.33;2.33;;;;;28.38;33.51;101906.69;5077300;27;45361;-76
2023/06/28 00:43:44;;;;;;;;;2.67;2.67;;;;;28.43;33.65;101907.91;5075722;28;45256;-77
2023/06/28 00:46:09;;;;;;;;;3.00;1.67;;;;;28.42;33.55;101907.09;5075616;28;45576;-77
2023/06/28 00:48:35;;;;;;;;;2.00;2.00;;;;;28.39;33.63;101899.47;5076615;27;47197;-77
2023/06/28 00:51:02;;;;;;;;;2.00;2.00;;;;;28.46;33.73;101911.06;5088839;27;45260;-76
2023/06/28 00:53:27;;;;;;;;;3.00;3.00;;;;;28.46;33.53;101902.22;5089078;27;45261;-76
2023/06/28 00:55:55;;;;;;;;;2.33;2.00;;;;;28.43;33.86;101900.72;5056834;28;45528;-77
2023/06/28 00:58:21;;;;;;;;;0.00;0.00;;;;;28.45;33.56;101898.69;5056409;28;45421;-76
2023/06/28 01:00:46;;;;;;;;;2.00;2.00;;;;;28.44;33.94;101899.72;5056249;28;45395;-76
2023/06/28 01:03:12;;;;;;;;;1.00;1.00;;;;;28.40;33.85;101890.41;5057013;28;45691;-77
2023/06/28 01:05:37;;;;;;;;;2.00;1.00;;;;;28.45;33.98;101889.84;5071922;28;45334;-77
2023/06/28 01:08:04;;;;;;;;;2.67;2.00;;;;;28.46;33.75;101888.81;5071366;28;47234;-77
2023/06/28 01:10:30;;;;;;;;;2.00;2.00;;;;;28.44;33.62;101891.69;5054957;28;45420;-76
2023/06/28 01:12:56;;;;;;;;;4.00;3.00;;;;;28.40;33.49;101875.19;5056364;28;45388;-77
2023/06/28 01:15:22;;;;;;;;;2.00;2.00;;;;;28.46;33.96;101883.47;5056550;28;45532;-77
2023/06/28 01:17:47;;;;;;;;;5.00;3.00;;;;;28.44;33.82;101869.44;5054720;28;47976;-77
2023/06/28 01:20:13;;;;;;;;;2.00;2.00;;;;;28.44;33.91;101886.34;5056155;28;45324;-76
2023/06/28 01:22:40;;;;;;;;;2.00;1.00;;;;;28.41;33.89;101884.03;5055684;28;45231;-76
2023/06/28 01:25:09;;;;;;;;;2.00;2.00;;;;;28.46;33.72;101895.00;5071922;28;45354;-77
2023/06/28 01:27:35;;;;;;;;;1.33;1.33;;;;;28.39;33.83;101883.44;5056154;28;46376;-77
2023/06/28 01:30:01;;;;;;;;;1.00;1.00;;;;;28.42;33.54;101883.00;5071571;28;45463;-77
2023/06/28 01:32:26;;;;;;;;;4.00;2.00;;;;;28.42;33.78;101883.00;5088746;27;45355;-76
2023/06/28 01:34:51;;;;;;;;;2.33;2.33;;;;;28.43;33.60;101884.66;5055957;28;45206;-76
2023/06/28 01:37:18;;;;;;;;;1.00;1.00;;;;;28.44;33.74;101886.34;5055418;28;45307;-76
2023/06/28 01:39:44;;;;;;;;;1.00;1.00;;;;;28.41;33.76;101878.69;5054593;28;45603;-77
2023/06/28 01:42:09;;;;;;;;;2.67;2.33;;;;;28.44;33.98;101877.47;5071612;28;45373;-76
2023/06/28 01:44:37;;;;;;;;;3.00;3.00;;;;;28.44;34.15;101872.94;5055891;28;45384;-77
2023/06/28 01:47:02;;;;;;;;;1.67;1.67;;;;;28.43;33.37;101867.78;5059236;27;47486;-77
2023/06/28 01:49:27;;;;;;;;;2.67;2.67;;;;;28.40;33.91;101869.00;5075873;27;45493;-77
2023/06/28 01:51:54;;;;;;;;;3.00;3.00;;;;;28.48;34.18;101873.38;5075758;28;45382;-76
2023/06/28 01:54:19;;;;;;;;;2.00;2.00;;;;;28.43;33.62;101859.75;5076046;28;45494;-78
2023/06/28 01:56:45;;;;;;;;;2.67;2.67;;;;;28.43;33.75;101868.59;5075637;28;46538;-76
2023/06/28 01:59:10;;;;;;;;;3.00;3.00;;;;;28.43;34.04;101867.78;5074340;28;45340;-76
2023/06/28 02:01:35;;;;;;;;;4.33;3.00;;;;;28.42;33.96;101866.16;5091580;27;45409;-76
2023/06/28 02:04:01;;;;;;;;;4.00;2.00;;;;;28.46;34.21;101873.59;5074728;28;45623;-77
2023/06/28 02:06:26;;;;;;;;;2.00;2.00;;;;;28.47;33.72;101869.06;5091009;27;45765;-77
2023/06/28 02:08:51;;;;;;;;;2.00;2.00;;;;;28.47;33.72;101866.41;5075655;28;45540;-76
2023/06/28 02:11:17;;;;;;;;;1.00;1.00;;;;;28.47;34.02;101858.38;5074458;28;45362;-76
2023/06/28 02:13:42;;;;;;;;;1.00;1.00;;;;;28.45;33.77;101857.72;5075834;28;45977;-76
2023/06/28 02:16:07;;;;;;;;;2.00;2.00;;;;;28.46;34.10;101854.03;5074096;28;46972;-77
2023/06/28 02:18:34;;;;;;;;;2.67;2.67;;;;;28.43;34.06;101847.19;5074130;28;45991;-76
2023/06/28 02:21:00;;;;;;;;;1.33;1.33;;;;;28.48;33.89;101857.31;5074094;28;45396;-76
2023/06/28 02:23:25;;;;;;;;;3.67;2.00;;;;;28.45;34.27;101855.03;5075578;27;45529;-76
2023/06/28 02:25:50;;;;;;;;;1.00;1.00;;;;;28.47;33.81;101861.03;5075488;27;46725;-76
2023/06/28 02:28:16;;;;;;;;;3.00;3.00;;;;;28.47;34.22;101858.38;5075601;28;45361;-76
2023/06/28 02:30:43;;;;;;;;;2.67;2.67;;;;;28.44;33.97;101854.22;5091365;27;45316;-76
2023/06/28 02:33:08;;;;;;;;;2.00;2.00;;;;;28.44;33.61;101846.19;5075587;27;45299;-75
2023/06/28 02:35:33;;;;;;;;;2.00;1.00;;;;;28.46;34.03;101846.00;5076968;28;46851;-77
2023/06/28 02:37:58;;;;;;;;;2.67;2.00;;;;;28.44;33.90;101846.19;5077948;28;45362;-75
2023/06/28 02:40:24;;;;;;;;;3.00;2.00;;;;;28.42;33.74;101837.50;5078686;27;45224;-76
2023/06/28 02:42:50;;;;;;;;;2.33;1.00;;;;;28.40;33.90;101842.25;5077818;27;45559;-77
2023/06/28 02:45:15;;;;;;;;;2.67;2.67;;;;;28.42;33.85;101836.72;5078412;28;47734;-77
2023/06/28 02:47:41;;;;;;;;;3.33;2.00;;;;;28.47;33.77;101845.78;5078018;27;45532;-76
2023/06/28 02:50:06;;;;;;;;;2.00;2.00;;;;;28.42;34.21;101829.47;5094387;27;45329;-76
2023/06/28 02:52:32;;;;;;;;;1.33;1.33;;;;;28.40;34.18;101827.00;5078974;28;45330;-77
2023/06/28 02:54:58;;;;;;;;;2.67;2.67;;;;;28.49;34.00;101838.41;5077306;28;46846;-76
2023/06/28 02:57:24;;;;;;;;;5.33;4.00;;;;;28.39;34.04;101825.34;5094627;27;45474;-76
2023/06/28 02:59:49;;;;;;;;;1.33;1.33;;;;;28.46;33.55;101829.94;5078540;27;45322;-76
2023/06/28 03:02:16;;;;;;;;;1.00;1.00;;;;;28.45;33.87;101831.78;5078507;28;45623;-76
2023/06/28 03:04:41;;;;;;;;;3.67;2.00;;;;;28.49;33.96;101835.72;5094314;27;47291;-77
2023/06/28 03:07:12;;;;;;;;;2.33;1.33;;;;;28.44;34.20;101823.94;5077224;28;45463;-76
2023/06/28 03:09:38;;;;;;;;;2.00;2.00;;;;;28.47;34.33;101837.75;5078354;28;45363;-76
2023/06/28 03:12:03;;;;;;;;;5.33;2.67;;;;;28.48;34.13;101838.59;5094313;27;45473;-76
2023/06/28 03:14:28;;;;;;;;;3.00;1.33;;;;;28.45;34.44;101829.13;5077111;28;48262;-77
2023/06/28 03:16:54;;;;;;;;;3.00;3.00;;;;;28.43;34.27;101825.78;5093716;27;45342;-77
2023/06/28 03:19:19;;;;;;;;;2.00;2.00;;;;;28.43;34.04;101819.59;5077077;28;45389;-77
2023/06/28 03:21:44;;;;;;;;;2.00;2.00;;;;;28.46;34.22;101832.63;5078498;27;45347;-76
2023/06/28 03:24:10;;;;;;;;;2.00;2.00;;;;;28.49;34.10;101834.91;5076719;28;47805;-75
2023/06/28 03:26:35;;;;;;;;;2.00;2.00;;;;;28.46;34.18;101836.13;5093990;27;45279;-76
2023/06/28 03:29:01;;;;;;;;;3.00;2.00;;;;;28.43;34.05;101824.94;5077059;28;45279;-76
2023/06/28 03:31:26;;;;;;;;;1.00;1.00;;;;;28.46;33.77;101840.66;5077891;27;45406;-76
2023/06/28 03:33:51;;;;;;;;;2.33;2.33;;;;;28.48;34.27;101846.63;5078109;28;46994;-76
2023/06/28 03:36:17;;;;;;;;;3.00;2.67;;;;;28.43;33.68;101839.16;5075993;28;45607;-76
2023/06/28 03:38:42;;;;;;;;;3.00;3.00;;;;;28.49;34.43;101837.56;5078022;27;45326;-77
2023/06/28 03:41:07;;;;;;;;;2.00;2.00;;;;;28.46;34.59;101832.63;5094015;27;45330;-76
2023/06/28 03:43:32;;;;;;;;;1.00;1.00;;;;;28.43;34.12;101825.78;5093831;27;46400;-77
2023/06/28 03:45:58;;;;;;;;;2.00;2.00;;;;;28.45;33.99;101834.47;5074724;28;46173;-76
2023/06/28 03:48:23;;;;;;;;;3.00;2.00;;;;;28.43;34.11;101823.09;5080628;27;45470;-77
2023/06/28 03:50:48;;;;;;;;;2.33;1.00;;;;;28.40;34.42;101826.19;5089946;27;45705;-77
2023/06/28 03:53:14;;;;;;;;;3.67;2.33;;;;;28.41;34.23;101825.16;5073021;28;47977;-77
2023/06/28 03:55:39;;;;;;;;;2.00;1.67;;;;;28.42;33.95;101826.81;5057592;28;45303;-77
2023/06/28 03:58:05;;;;;;;;;2.33;2.33;;;;;28.48;33.97;101834.06;5073168;27;45418;-77
2023/06/28 04:00:30;;;;;;;;;2.67;2.00;;;;;28.47;34.24;101834.28;5072857;27;45305;-76
2023/06/28 04:02:55;;;;;;;;;3.00;3.00;;;;;28.47;33.86;101829.72;5057371;28;46068;-76
2023/06/28 04:05:21;;;;;;;;;2.00;2.00;;;;;28.47;34.26;101828.94;5057332;28;45367;-77
2023/06/28 04:07:54;;;;;;;;;1.00;1.00;;;;;28.50;34.04;101836.53;5056318;28;45362;-77
2023/06/28 04:10:20;;;;;;;;;1.33;1.00;;;;;28.45;34.29;101823.75;5072954;28;45538;-77
2023/06/28 04:12:46;;;;;;;;;1.67;1.67;;;;;28.46;34.26;101828.09;5057088;28;46461;-77
2023/06/28 04:15:11;;;;;;;;;1.00;1.00;;;;;28.45;34.09;101822.94;5056670;27;45359;-76
2023/06/28 04:17:36;;;;;;;;;2.33;2.00;;;;;28.46;33.86;101829.94;5056231;28;45465;-77
2023/06/28 04:20:05;;;;;;;;;1.67;1.67;;;;;28.45;34.02;101825.59;5072724;27;45545;-77
2023/06/28 04:22:31;;;;;;;;;1.33;1.33;;;;;28.46;34.12;101829.94;5057067;28;46336;-76
2023/06/28 04:24:56;;;;;;;;;2.00;2.00;;;;;28.48;34.25;101833.25;5056980;28;45339;-76
2023/06/28 04:27:22;;;;;;;;;2.00;2.00;;;;;28.47;33.87;101836.97;5072841;28;45323;-76
2023/06/28 04:29:47;;;;;;;;;2.00;2.00;;;;;28.51;34.14;101835.53;5056874;28;45342;-76
2023/06/28 04:32:23;;;;;;;;;1.33;1.00;;;;;28.52;34.14;101842.53;5089548;27;46570;-76
2023/06/28 04:34:53;;;;;;;;;2.00;2.00;;;;;28.46;34.51;101829.94;5056895;28;45512;-76
2023/06/28 04:37:22;;;;;;;;;2.00;2.00;;;;;28.51;34.54;101847.06;5056965;28;45409;-76
2023/06/28 04:39:48;;;;;;;;;2.00;2.00;;;;;28.45;34.33;101834.47;5055591;28;45359;-76
2023/06/28 04:42:14;;;;;;;;;4.00;2.00;;;;;28.49;34.10;101837.56;5056722;28;45585;-77
2023/06/28 04:44:41;;;;;;;;;2.00;2.00;;;;;28.48;34.44;101835.91;5055176;28;45897;-77
2023/06/28 04:47:07;;;;;;;;;2.67;2.67;;;;;28.45;34.02;101834.47;5062150;27;45391;-76
2023/06/28 04:49:34;;;;;;;;;4.00;2.33;;;;;28.43;34.18;101828.47;5092880;27;45271;-77
2023/06/28 04:52:00;;;;;;;;;2.00;2.00;;;;;28.49;34.70;101835.72;5076750;27;45417;-76
2023/06/28 04:54:26;;;;;;;;;2.00;1.33;;;;;28.44;34.43;101821.25;5092595;27;45504;-76
2023/06/28 04:56:51;;;;;;;;;2.67;2.67;;;;;28.46;34.01;101830.78;5092083;27;45623;-76
2023/06/28 04:59:16;;;;;;;;;3.00;3.00;;;;;28.42;34.26;101820.66;5076086;27;45398;-77
2023/06/28 05:01:42;;;;;;;;;3.00;2.33;;;;;28.44;34.51;101829.28;5075509;28;48178;-77
2023/06/28 05:04:07;;;;;;;;;1.67;1.67;;;;;28.46;34.25;101830.78;5092540;27;45436;-77
2023/06/28 05:06:35;;;;;;;;;1.33;1.33;;;;;28.44;34.06;101827.44;5076783;28;45310;-76
2023/06/28 05:09:01;;;;;;;;;2.00;2.00;;;;;28.42;34.11;101820.66;5077025;27;45349;-77
2023/06/28 05:11:26;;;;;;;;;2.00;1.00;;;;;28.46;34.36;101832.63;5074739;28;45360;-77
2023/06/28 05:13:52;;;;;;;;;3.00;2.00;;;;;28.47;34.18;101829.72;5074526;28;45483;-77
2023/06/28 05:16:17;;;;;;;;;2.00;2.00;;;;;28.38;34.69;101818.38;5075007;28;45423;-77
2023/06/28 05:18:43;;;;;;;;;1.00;1.00;;;;;28.46;34.40;101825.41;5092237;27;45318;-77
2023/06/28 05:21:09;;;;;;;;;3.00;3.00;;;;;28.45;34.85;101821.09;5076460;28;45477;-76
2023/06/28 05:23:34;;;;;;;;;2.00;2.00;;;;;28.49;34.43;101825.03;5076475;28;45402;-77
2023/06/28 05:25:59;;;;;;;;;2.67;2.67;;;;;28.44;34.22;101813.22;5076000;28;45524;-76
2023/06/28 05:28:25;;;;;;;;;2.33;2.00;;;;;28.44;34.43;101811.38;5076130;27;45348;-77
2023/06/28 05:30:51;;;;;;;;;2.67;2.67;;;;;28.48;34.30;101818.00;5076113;27;45618;-78
2023/06/28 05:33:16;;;;;;;;;1.00;1.00;;;;;28.51;34.65;101822.13;5076179;27;45369;-73
2023/06/28 05:35:42;;;;;;;;;2.00;2.00;;;;;28.47;34.10;101813.66;5074291;28;45496;-73
2023/06/28 05:38:07;;;;;;;;;2.00;2.00;;;;;28.51;34.27;101817.63;5074880;28;45305;-73
2023/06/28 05:40:33;;;;;;;;;4.33;4.33;;;;;28.52;33.77;101813.09;5091721;27;46983;-75
2023/06/28 05:42:59;;;;;;;;;5.00;5.00;;;;;28.38;33.85;101814.84;5091541;27;45340;-74
2023/06/28 05:45:25;;;;;;;;;6.00;6.00;;;;;28.18;33.95;101816.41;5076050;27;45354;-75
2023/06/28 05:47:50;;;;;;;;;6.33;5.67;;;;;27.91;33.67;101802.09;5075968;27;45620;-75
2023/06/28 05:50:17;;;;;;;;;5.00;4.00;;;;;27.83;34.42;101814.59;5088494;27;45353;-75
2023/06/28 05:52:45;;;;;;;;;8.67;7.00;;;;;27.66;34.66;101814.06;5066079;27;45282;-76
2023/06/28 05:55:11;;;;;;;;;8.67;7.00;;;;;27.57;34.02;101823.25;5088296;27;45441;-75
2023/06/28 05:57:37;;;;;;;;;9.00;7.33;;;;;27.39;34.36;101825.38;5053936;28;45546;-76
2023/06/28 06:00:04;;;;;;;;;8.00;8.00;;;;;27.24;34.82;101814.78;5055269;28;45438;-75
2023/06/28 06:02:29;;;;;;;;;9.00;6.33;;;;;26.95;35.16;101797.84;5068430;28;45458;-75
2023/06/28 06:04:55;;;;;;;;;6.00;6.00;;;;;26.98;34.86;101818.00;5091624;27;45864;-74
2023/06/28 06:07:20;;;;;;;;;4.00;4.00;;;;;26.91;35.09;101829.44;5074503;28;45581;-72
2023/06/28 06:09:45;;;;;;;;;4.00;4.00;;;;;26.89;35.63;101822.63;5075417;27;45476;-73
2023/06/28 06:12:10;;;;;;;;;4.00;3.00;;;;;26.95;34.85;101824.56;5077618;28;45457;-73
2023/06/28 06:14:36;;;;;;;;;7.33;4.33;;;;;27.02;35.26;101817.41;5077399;28;45391;-73
2023/06/28 06:17:01;;;;;;;;;3.00;3.00;;;;;27.16;35.21;101826.44;5078693;27;45600;-73
2023/06/28 06:19:26;;;;;;;;;5.33;4.00;;;;;27.25;35.72;101829.78;5079028;27;45473;-73
2023/06/28 06:21:52;;;;;;;;;3.00;3.00;;;;;27.27;35.25;101821.59;5094857;27;46297;-73
2023/06/28 06:24:17;;;;;;;;;4.33;4.33;;;;;27.33;35.08;101822.63;5079266;27;45365;-73
2023/06/28 06:26:43;;;;;;;;;4.00;4.00;;;;;27.39;34.81;101820.03;5078769;27;45513;-73
2023/06/28 06:29:08;;;;;;;;;3.00;2.00;;;;;27.48;35.09;101823.38;5078738;28;45370;-73
2023/06/28 06:31:33;;;;;;;;;5.67;3.00;;;;;27.54;35.23;101829.81;5078754;27;45399;-73
2023/06/28 06:34:01;;;;;;;;;3.00;3.00;;;;;27.58;34.68;101828.41;5079059;27;45427;-73
2023/06/28 06:36:29;;;;;;;;;3.67;3.67;;;;;27.60;35.39;101818.34;5078776;27;45252;-73
2023/06/28 06:38:58;;;;;;;;;4.33;3.00;;;;;27.67;35.00;101818.38;5078554;27;45677;-73
2023/06/28 06:41:23;;;;;;;;;4.67;3.00;;;;;27.65;35.31;101820.44;5078187;27;45238;-74
2023/06/28 06:43:49;;;;;;;;;5.33;3.00;;;;;27.77;34.73;101826.03;5079112;27;45284;-73
2023/06/28 06:46:16;;;;;;;;;3.67;3.00;;;;;27.73;35.06;101820.28;5078754;27;45581;-73
2023/06/28 06:48:41;;;;;;;;;4.67;4.00;;;;;27.82;35.43;101828.97;5078357;27;47039;-73
2023/06/28 06:51:07;;;;;;;;;5.67;3.67;;;;;27.84;35.19;101824.25;5078333;27;45410;-73
2023/06/28 06:53:32;;;;;;;;;7.00;3.00;;;;;27.89;35.00;101829.03;5078733;28;45463;-73
2023/06/28 06:55:58;;;;;;;;;6.00;4.00;;;;;27.85;34.63;101814.41;5078416;28;45377;-73
2023/06/28 06:58:24;;;;;;;;;7.00;3.00;;;;;27.93;35.01;101829.47;5077889;28;46154;-74
2023/06/28 07:00:51;;;;;;;;;5.33;2.33;;;;;27.89;35.18;101829.03;5078152;27;45354;-73
2023/06/28 07:03:17;;;;;;;;;5.33;5.33;;;;;27.96;34.86;101835.25;5078672;27;45315;-74
2023/06/28 07:05:42;;;;;;;;;4.67;3.67;;;;;27.93;34.92;101826.78;5078472;28;45377;-74
2023/06/28 07:08:08;;;;;;;;;5.00;3.67;;;;;27.98;35.30;101835.03;5078126;27;46177;-73
2023/06/28 07:10:33;;;;;;;;;3.00;2.33;;;;;28.05;35.17;101832.41;5077987;27;45319;-74
2023/06/28 07:12:58;;;;;;;;;4.00;3.00;;;;;28.08;35.10;101842.69;5078403;27;45328;-73
2023/06/28 07:15:24;;;;;;;;;4.00;4.00;;;;;28.07;35.21;101833.03;5078136;27;45389;-74
2023/06/28 07:17:50;;;;;;;;;4.67;3.33;;;;;28.13;34.58;101845.59;5076721;28;46426;-74
2023/06/28 07:20:16;;;;;;;;;4.67;3.00;;;;;28.11;34.68;101838.81;5077864;27;45390;-73
2023/06/28 07:22:41;;;;;;;;;3.33;3.33;;;;;28.13;34.95;101842.13;5078181;27;45405;-73
2023/06/28 07:25:07;;;;;;;;;6.00;3.00;;;;;28.15;34.92;101846.25;5077873;27;45340;-73
2023/06/28 07:27:32;;;;;;;;;4.00;2.67;;;;;28.19;34.91;101854.69;5077980;27;47217;-73
2023/06/28 07:29:57;;;;;;;;;7.00;3.00;;;;;28.21;34.79;101852.66;5078076;27;45388;-73
2023/06/28 07:32:26;;;;;;;;;4.00;3.00;;;;;28.18;34.85;101850.38;5078007;27;45315;-73
2023/06/28 07:34:51;;;;;;;;;3.67;3.67;;;;;28.20;34.83;101852.84;5077853;27;45166;-73
2023/06/28 07:37:17;;;;;;;;;4.00;3.00;;;;;28.27;34.37;101859.91;5076482;28;47112;-73
2023/06/28 07:39:42;;;;;;;;;6.00;4.00;;;;;28.23;34.93;101852.47;5077469;27;45240;-73
2023/06/28 07:42:08;;;;;;;;;4.00;3.00;;;;;28.33;35.15;101866.31;5077735;27;45248;-73
2023/06/28 07:44:33;;;;;;;;;3.00;3.00;;;;;28.33;34.64;101863.63;5077864;27;45322;-74
2023/06/28 07:46:58;;;;;;;;;4.00;4.00;;;;;28.32;34.69;101855.78;5077055;27;45167;-73
2023/06/28 07:49:24;;;;;;;;;3.33;3.33;;;;;28.34;34.40;101857.25;5077510;27;45657;-73
2023/06/28 07:51:49;;;;;;;;;3.67;3.67;;;;;28.40;34.54;101864.47;5076474;28;45452;-73
2023/06/28 07:54:14;;;;;;;;;3.33;3.33;;;;;28.40;34.80;101858.28;5093060;27;45662;-73
2023/06/28 07:56:40;;;;;;;;;4.33;4.00;;;;;28.38;34.45;101855.84;5075888;28;46197;-73
2023/06/28 07:59:05;;;;;;;;;4.33;3.33;;;;;28.34;34.55;101843.06;5077538;27;45368;-73
2023/06/28 08:01:33;;;;;;;;;3.67;3.67;;;;;28.38;35.18;101847.81;5076456;28;45574;-73
2023/06/28 08:03:58;;;;;;;;;3.33;3.33;;;;;28.37;34.40;101839.94;5077614;27;45469;-73
2023/06/28 08:06:24;;;;;;;;;2.67;2.67;;;;;28.43;34.47;101846.38;5077370;27;45338;-73
2023/06/28 08:08:50;;;;;;;;;3.00;3.00;;;;;28.41;34.82;101843.91;5076802;27;45410;-73
2023/06/28 08:11:16;;;;;;;;;6.00;4.00;;;;;28.44;35.03;101848.03;5077060;27;45446;-73
2023/06/28 08:13:41;;;;;;;;;3.00;3.00;;;;;28.46;35.06;101848.69;5076366;27;45364;-73
2023/06/28 08:16:06;;;;;;;;;4.33;4.33;;;;;28.46;34.79;101830.78;5076304;27;45377;-73
2023/06/28 08:18:32;;;;;;;;;5.00;4.00;;;;;28.50;34.36;101842.72;5077461;27;45309;-73
2023/06/28 08:20:57;;;;;;;;;4.67;4.67;;;;;28.49;34.62;101846.44;5075909;28;45740;-73
2023/06/28 08:23:22;;;;;;;;;4.75;4.00;;;;;28.48;34.37;101839.41;5076629;27;45538;-73
2023/06/28 08:25:48;;;;;;;;;3.00;3.00;;;;;28.46;34.75;101832.63;5077009;28;52448;-73
2023/06/28 08:28:16;;;;;;;;;2.67;2.67;;;;;28.51;35.03;101838.19;5076530;27;45321;-73
2023/06/28 08:30:41;;;;;;;;;3.33;3.00;;;;;28.53;34.68;101844.16;5077037;28;45438;-73
2023/06/28 08:33:06;;;;;;;;;5.33;4.00;;;;;28.49;34.75;101822.34;5076580;27;45414;-73
2023/06/28 08:35:32;;;;;;;;;2.00;2.00;;;;;28.58;34.90;101836.38;5076686;27;48473;-73
2023/06/28 08:37:57;;;;;;;;;4.00;4.00;;;;;28.57;34.39;101842.75;5076561;27;45272;-73
2023/06/28 08:40:27;;;;;;;;;4.00;4.00;;;;;28.55;34.87;101834.09;5077333;27;45340;-73
2023/06/28 08:42:57;;;;;;;;;7.00;4.00;;;;;28.54;34.49;101824.41;5076630;27;45290;-73
2023/06/28 08:45:23;;;;;;;;;3.33;3.00;;;;;28.59;34.54;101834.50;5076527;27;45481;-73
2023/06/28 08:47:49;;;;;;;;;4.67;3.33;;;;;28.65;34.63;101838.25;5075926;27;45426;-73
2023/06/28 08:50:15;;;;;;;;;5.67;4.00;;;;;28.60;34.67;101822.75;5076373;27;45691;-74
2023/06/28 08:52:41;;;;;;;;;4.67;4.67;;;;;28.65;34.54;101832.88;5076503;27;45291;-74
2023/06/28 08:55:07;;;;;;;;;5.00;4.00;;;;;28.65;35.14;101830.22;5076588;28;46614;-74
2023/06/28 08:57:36;;;;;;;;;4.00;3.00;;;;;28.68;34.66;101833.28;5076509;27;45421;-73
2023/06/28 09:00:03;;;;;;;;;4.67;3.67;;;;;28.70;34.73;101835.78;5076590;28;45323;-74
2023/06/28 09:02:30;;;;;;;;;5.00;4.00;;;;;28.72;34.48;101828.38;5076289;28;45606;-73
2023/06/28 09:04:56;;;;;;;;;5.00;4.33;;;;;28.75;34.39;101833.31;5075672;27;45324;-73
2023/06/28 09:07:22;;;;;;;;;3.67;3.33;;;;;28.72;34.53;101823.84;5076475;27;45217;-73
2023/06/28 09:09:49;;;;;;;;;4.33;4.33;;;;;28.78;33.98;101835.56;5076635;27;45311;-73
2023/06/28 09:12:15;;;;;;;;;6.00;3.00;;;;;28.79;35.04;101828.38;5075707;27;45409;-73
2023/06/28 09:14:41;;;;;;;;;4.67;3.67;;;;;28.81;34.33;101834.34;5076196;27;45401;-73
2023/06/28 09:17:06;;;;;;;;;5.00;5.00;;;;;28.79;34.94;101828.38;5076185;27;45390;-73
2023/06/28 09:19:31;;;;;;;;;6.33;5.00;;;;;28.76;35.08;101820.75;5076106;27;45395;-73
2023/06/28 09:22:04;;;;;;;;;3.67;2.33;;;;;28.82;34.81;101827.97;5076743;27;45455;-73
2023/06/28 09:24:34;;;;;;;;;5.33;4.00;;;;;28.77;35.14;101819.72;5076314;27;46497;-73
2023/06/28 09:27:04;;;;;;;;;4.67;3.67;;;;;28.83;34.83;101821.59;5076208;27;45299;-73
2023/06/28 09:29:30;;;;;;;;;5.00;4.00;;;;;28.82;34.44;101822.63;5076221;27;45598;-73
2023/06/28 09:31:55;;;;;;;;;3.33;3.33;;;;;28.74;34.33;101805.72;5075045;28;45558;-73
2023/06/28 09:34:24;;;;;;;;;4.67;4.67;;;;;28.76;34.65;101810.84;5075982;27;45407;-73
2023/06/28 09:36:53;;;;;;;;;5.00;5.00;;;;;28.81;35.23;101812.91;5075936;27;45280;-73
2023/06/28 09:39:22;;;;;;;;;4.00;3.00;;;;;28.80;34.84;101814.78;5076137;27;45513;-73
2023/06/28 09:41:48;;;;;;;;;2.67;2.67;;;;;28.76;34.96;101800.16;5076177;27;45312;-73
2023/06/28 09:44:15;;;;;;;;;7.00;5.00;;;;;28.78;34.80;101806.13;5075440;27;46624;-74
2023/06/28 09:46:46;;;;;;;;;4.67;4.67;;;;;28.77;34.54;101804.50;5075707;27;45224;-73
2023/06/28 09:49:24;;;;;;;;;3.67;3.67;;;;;28.83;34.58;101800.97;5075634;27;45337;-73
2023/06/28 09:51:59;;;;;;;;;5.33;4.00;;;;;28.87;34.75;101808.59;5075316;27;45601;-73
2023/06/28 09:54:32;;;;;;;;;4.00;3.00;;;;;28.86;34.75;101810.47;5075645;27;46288;-73
2023/06/28 09:56:59;;;;;;;;;5.33;5.33;;;;;28.83;34.58;101806.34;5074214;28;45363;-73
2023/06/28 09:59:28;;;;;;;;;2.00;2.00;;;;;28.83;35.03;101800.97;5075733;28;45296;-73
2023/06/28 10:01:57;;;;;;;;;2.67;2.67;;;;;28.89;34.78;101801.19;5075780;28;45735;-73
2023/06/28 10:04:26;;;;;;;;;5.00;4.67;;;;;28.89;34.90;101793.16;5074941;28;47555;-73
2023/06/28 10:06:52;;;;;;;;;6.00;5.00;;;;;28.91;34.77;101796.47;5075196;28;45410;-74
2023/06/28 10:09:22;;;;;;;;;4.67;4.67;;;;;28.91;34.66;101791.13;5075625;28;45232;-74
2023/06/28 10:11:48;;;;;;;;;4.00;3.67;;;;;28.95;34.84;101789.66;5074823;28;45660;-73
2023/06/28 10:14:16;;;;;;;;;5.00;4.67;;;;;28.99;35.16;101792.78;5108494;27;47288;-74
2023/06/28 10:16:43;;;;;;;;;4.33;4.00;;;;;28.99;34.90;101784.75;5074966;28;45432;-74
2023/06/28 10:19:09;;;;;;;;;5.00;5.00;;;;;28.93;34.56;101775.66;5075283;28;45241;-73
2023/06/28 10:21:35;;;;;;;;;7.67;6.33;;;;;28.95;35.06;101774.44;5073449;28;45367;-73
2023/06/28 10:24:03;;;;;;;;;4.33;4.33;;;;;28.98;34.87;101781.22;5075336;28;45507;-73
2023/06/28 10:26:28;;;;;;;;;4.33;4.00;;;;;28.93;34.78;101778.34;5075547;28;45430;-73
2023/06/28 10:28:55;;;;;;;;;5.00;5.00;;;;;28.96;34.93;101778.75;5075432;28;45565;-73
2023/06/28 10:31:21;;;;;;;;;5.00;5.00;;;;;28.96;35.27;101777.94;5075471;28;45304;-74
2023/06/28 10:33:48;;;;;;;;;3.67;3.67;;;;;28.97;34.61;101774.22;5074942;27;45445;-73
2023/06/28 10:36:14;;;;;;;;;7.00;6.00;;;;;28.95;34.83;101776.28;5075102;27;45396;-74
2023/06/28 10:38:43;;;;;;;;;8.67;5.67;;;;;28.93;35.06;101770.31;5075214;28;45398;-73
2023/06/28 10:41:14;;;;;;;;;7.00;7.00;;;;;28.96;34.70;101775.25;5074791;27;45311;-74
2023/06/28 10:43:39;;;;;;;;;7.33;7.33;;;;;28.91;35.16;101770.50;5074880;27;45711;-73
2023/06/28 10:46:23;;;;;;;;;4.33;4.00;;;;;28.95;34.97;101776.28;5075010;28;45434;-74
2023/06/28 10:48:53;;;;;;;;;6.00;4.67;;;;;28.94;34.92;101772.78;5075173;27;45338;-74
2023/06/28 10:51:23;;;;;;;;;6.33;6.33;;;;;28.89;34.89;101764.53;5074761;28;45542;-74
2023/06/28 10:53:59;;;;;;;;;8.00;7.00;;;;;28.89;34.87;101766.38;5075191;28;46300;-73
2023/06/28 10:56:44;;;;;;;;;5.33;5.33;;;;;28.92;35.02;101774.00;5078206;27;45346;-73
2023/06/28 10:59:09;;;;;;;;;5.00;4.00;;;;;28.88;35.23;101768.25;5077844;27;45583;-74
2023/06/28 11:01:38;;;;;;;;;9.00;7.67;;;;;28.85;35.01;101756.09;5094283;27;45509;-72
2023/06/28 11:04:22;;;;;;;;;7.00;6.00;;;;;28.96;35.20;101769.91;5079116;27;46106;-73
2023/06/28 11:06:49;;;;;;;;;7.00;7.00;;;;;28.91;34.99;101767.81;5061098;27;45435;-72
2023/06/28 11:09:19;;;;;;;;;6.00;6.00;;;;;28.91;35.01;101770.50;5057670;28;45334;-72
2023/06/28 11:11:54;;;;;;;;;8.00;8.00;;;;;28.93;34.95;101762.28;5064213;28;45378;-73
2023/06/28 11:14:22;;;;;;;;;10.00;6.33;;;;;28.90;35.16;101766.19;5062689;27;46396;-73
2023/06/28 11:16:49;;;;;;;;;8.33;5.67;;;;;28.91;35.21;101762.47;5073710;28;45460;-73
2023/06/28 11:19:18;;;;;;;;;9.00;7.67;;;;;28.91;35.26;101759.78;5079327;27;45403;-73
2023/06/28 11:21:47;;;;;;;;;5.67;5.67;;;;;28.96;35.31;101768.03;5067557;27;45478;-72